sensor_id;sensor_type;location;lat;lon;timestamp;P1;durP1;ratioP1;P2;durP2;ratioP2
12194;SDS011;27023;42.680;23.132;2022-12-07T00:01:35;19.20;;;18.30;;
12194;SDS011;27023;42.680;23.132;2022-12-07T00:04:04;16.53;;;15.83;;
12194;SDS011;27023;42.680;23.132;2022-12-07T00:06:33;18.43;;;17.53;;
12194;SDS011;27023;42.680;23.132;2022-12-07T00:09:00;18.57;;;17.77;;
12194;SDS011;27023;42.680;23.132;2022-12-07T00:11:27;19.47;;;18.57;;
12194;SDS011;27023;42.680;23.132;2022-12-07T00:13:55;21.70;;;20.60;;
12194;SDS011;27023;42.680;23.132;2022-12-07T00:16:24;18.77;;;17.83;;
12194;SDS011;27023;42.680;23.132;2022-12-07T00:18:53;18.70;;;17.90;;
12194;SDS011;27023;42.680;23.132;2022-12-07T00:21:20;17.07;;;16.27;;
12194;SDS011;27023;42.680;23.132;2022-12-07T00:23:49;17.30;;;16.53;;
12194;SDS011;27023;42.680;23.132;2022-12-07T00:26:17;18.90;;;17.97;;
12194;SDS011;27023;42.680;23.132;2022-12-07T00:28:47;20.30;;;19.40;;
12194;SDS011;27023;42.680;23.132;2022-12-07T00:31:16;20.17;;;19.27;;
12194;SDS011;27023;42.680;23.132;2022-12-07T00:33:45;22.07;;;21.13;;
12194;SDS011;27023;42.680;23.132;2022-12-07T00:36:14;23.03;;;22.03;;
12194;SDS011;27023;42.680;23.132;2022-12-07T00:38:42;25.40;;;24.27;;
12194;SDS011;27023;42.680;23.132;2022-12-07T00:41:09;21.17;;;20.30;;
12194;SDS011;27023;42.680;23.132;2022-12-07T00:43:37;21.37;;;20.43;;
12194;SDS011;27023;42.680;23.132;2022-12-07T00:46:05;20.27;;;19.40;;
12194;SDS011;27023;42.680;23.132;2022-12-07T00:48:33;19.87;;;18.97;;
12194;SDS011;27023;42.680;23.132;2022-12-07T00:51:00;21.97;;;21.00;;
12194;SDS011;27023;42.680;23.132;2022-12-07T00:53:27;21.30;;;20.40;;
12194;SDS011;27023;42.680;23.132;2022-12-07T00:55:54;19.23;;;18.33;;
12194;SDS011;27023;42.680;23.132;2022-12-07T00:58:21;17.10;;;16.47;;
12194;SDS011;27023;42.680;23.132;2022-12-07T01:00:48;18.00;;;17.27;;
12194;SDS011;27023;42.680;23.132;2022-12-07T01:03:16;21.00;;;20.13;;
12194;SDS011;27023;42.680;23.132;2022-12-07T01:05:50;19.20;;;18.33;;
12194;SDS011;27023;42.680;23.132;2022-12-07T01:08:17;18.67;;;17.90;;
12194;SDS011;27023;42.680;23.132;2022-12-07T01:10:44;20.23;;;19.23;;
12194;SDS011;27023;42.680;23.132;2022-12-07T01:13:11;23.00;;;21.93;;
12194;SDS011;27023;42.680;23.132;2022-12-07T01:15:38;24.53;;;23.30;;
12194;SDS011;27023;42.680;23.132;2022-12-07T01:18:05;24.90;;;23.70;;
12194;SDS011;27023;42.680;23.132;2022-12-07T01:20:32;27.07;;;25.67;;
12194;SDS011;27023;42.680;23.132;2022-12-07T01:23:00;23.63;;;22.33;;
12194;SDS011;27023;42.680;23.132;2022-12-07T01:25:27;18.10;;;17.30;;
12194;SDS011;27023;42.680;23.132;2022-12-07T01:27:53;19.23;;;18.23;;
12194;SDS011;27023;42.680;23.132;2022-12-07T01:30:20;19.63;;;18.63;;
12194;SDS011;27023;42.680;23.132;2022-12-07T01:32:47;21.17;;;20.13;;
12194;SDS011;27023;42.680;23.132;2022-12-07T01:35:14;23.93;;;22.83;;
12194;SDS011;27023;42.680;23.132;2022-12-07T01:37:40;21.50;;;20.50;;
12194;SDS011;27023;42.680;23.132;2022-12-07T01:40:09;18.93;;;18.13;;
12194;SDS011;27023;42.680;23.132;2022-12-07T01:42:36;18.57;;;17.67;;
12194;SDS011;27023;42.680;23.132;2022-12-07T01:48:03;19.13;;;18.23;;
12194;SDS011;27023;42.680;23.132;2022-12-07T01:50:31;19.13;;;18.23;;
12194;SDS011;27023;42.680;23.132;2022-12-07T01:52:58;20.77;;;19.77;;
12194;SDS011;27023;42.680;23.132;2022-12-07T01:55:29;19.87;;;19.07;;
12194;SDS011;27023;42.680;23.132;2022-12-07T01:57:56;19.20;;;18.40;;
12194;SDS011;27023;42.680;23.132;2022-12-07T02:00:23;21.87;;;20.87;;
12194;SDS011;27023;42.680;23.132;2022-12-07T02:02:51;21.70;;;20.73;;
12194;SDS011;27023;42.680;23.132;2022-12-07T02:05:21;22.37;;;21.23;;
12194;SDS011;27023;42.680;23.132;2022-12-07T02:07:50;26.27;;;24.77;;
12194;SDS011;27023;42.680;23.132;2022-12-07T02:10:20;25.87;;;24.53;;
12194;SDS011;27023;42.680;23.132;2022-12-07T02:12:51;22.83;;;21.77;;
12194;SDS011;27023;42.680;23.132;2022-12-07T02:15:21;23.90;;;22.73;;
12194;SDS011;27023;42.680;23.132;2022-12-07T02:17:56;22.90;;;21.80;;
12194;SDS011;27023;42.680;23.132;2022-12-07T02:20:33;23.30;;;22.10;;
12194;SDS011;27023;42.680;23.132;2022-12-07T02:26:14;27.67;;;26.33;;
12194;SDS011;27023;42.680;23.132;2022-12-07T02:29:12;28.63;;;27.10;;
12194;SDS011;27023;42.680;23.132;2022-12-07T02:31:44;28.30;;;26.93;;
12194;SDS011;27023;42.680;23.132;2022-12-07T02:34:18;22.73;;;21.70;;
12194;SDS011;27023;42.680;23.132;2022-12-07T02:36:53;24.10;;;22.87;;
12194;SDS011;27023;42.680;23.132;2022-12-07T02:39:25;19.20;;;18.47;;
12194;SDS011;27023;42.680;23.132;2022-12-07T02:42:00;20.17;;;19.20;;
12194;SDS011;27023;42.680;23.132;2022-12-07T02:44:35;20.07;;;19.13;;
12194;SDS011;27023;42.680;23.132;2022-12-07T02:47:03;20.03;;;19.00;;
12194;SDS011;27023;42.680;23.132;2022-12-07T02:49:33;17.83;;;17.03;;
12194;SDS011;27023;42.680;23.132;2022-12-07T02:52:00;18.73;;;17.87;;
12194;SDS011;27023;42.680;23.132;2022-12-07T02:54:27;21.43;;;20.47;;
12194;SDS011;27023;42.680;23.132;2022-12-07T02:56:56;31.30;;;29.77;;
12194;SDS011;27023;42.680;23.132;2022-12-07T02:59:30;29.83;;;28.43;;
12194;SDS011;27023;42.680;23.132;2022-12-07T03:02:11;26.27;;;25.00;;
12194;SDS011;27023;42.680;23.132;2022-12-07T03:04:50;30.77;;;29.17;;
12194;SDS011;27023;42.680;23.132;2022-12-07T03:07:29;30.97;;;29.40;;
12194;SDS011;27023;42.680;23.132;2022-12-07T03:10:06;24.30;;;23.20;;
12194;SDS011;27023;42.680;23.132;2022-12-07T03:12:36;25.80;;;24.53;;
12194;SDS011;27023;42.680;23.132;2022-12-07T03:15:12;25.77;;;24.50;;
12194;SDS011;27023;42.680;23.132;2022-12-07T03:17:44;29.03;;;27.73;;
12194;SDS011;27023;42.680;23.132;2022-12-07T03:20:14;24.63;;;23.57;;
12194;SDS011;27023;42.680;23.132;2022-12-07T03:22:45;23.10;;;21.97;;
12194;SDS011;27023;42.680;23.132;2022-12-07T03:25:14;23.43;;;22.43;;
12194;SDS011;27023;42.680;23.132;2022-12-07T03:27:44;27.50;;;26.23;;
12194;SDS011;27023;42.680;23.132;2022-12-07T03:30:19;21.93;;;21.03;;
12194;SDS011;27023;42.680;23.132;2022-12-07T03:32:48;23.33;;;22.23;;
12194;SDS011;27023;42.680;23.132;2022-12-07T03:35:21;21.60;;;20.67;;
12194;SDS011;27023;42.680;23.132;2022-12-07T03:37:53;21.70;;;20.77;;
12194;SDS011;27023;42.680;23.132;2022-12-07T03:40:25;21.87;;;20.97;;
12194;SDS011;27023;42.680;23.132;2022-12-07T03:42:56;34.00;;;32.40;;
12194;SDS011;27023;42.680;23.132;2022-12-07T03:45:29;36.17;;;34.47;;
12194;SDS011;27023;42.680;23.132;2022-12-07T03:48:02;30.60;;;29.20;;
12194;SDS011;27023;42.680;23.132;2022-12-07T03:50:36;28.87;;;27.53;;
12194;SDS011;27023;42.680;23.132;2022-12-07T03:53:09;27.50;;;26.20;;
12194;SDS011;27023;42.680;23.132;2022-12-07T03:55:41;35.67;;;33.97;;
12194;SDS011;27023;42.680;23.132;2022-12-07T03:58:11;41.50;;;39.50;;
12194;SDS011;27023;42.680;23.132;2022-12-07T04:00:42;38.63;;;36.80;;
12194;SDS011;27023;42.680;23.132;2022-12-07T04:03:09;27.73;;;26.43;;
12194;SDS011;27023;42.680;23.132;2022-12-07T04:05:36;31.47;;;30.00;;
12194;SDS011;27023;42.680;23.132;2022-12-07T04:08:04;35.53;;;33.83;;
12194;SDS011;27023;42.680;23.132;2022-12-07T04:10:31;24.10;;;23.10;;
12194;SDS011;27023;42.680;23.132;2022-12-07T04:12:58;44.53;;;42.37;;
12194;SDS011;27023;42.680;23.132;2022-12-07T04:15:24;32.77;;;31.23;;
12194;SDS011;27023;42.680;23.132;2022-12-07T04:17:52;28.33;;;27.00;;
12194;SDS011;27023;42.680;23.132;2022-12-07T04:20:20;29.37;;;28.03;;
12194;SDS011;27023;42.680;23.132;2022-12-07T04:22:47;36.30;;;34.47;;
12194;SDS011;27023;42.680;23.132;2022-12-07T04:25:15;42.87;;;40.77;;
12194;SDS011;27023;42.680;23.132;2022-12-07T04:27:43;29.57;;;28.17;;
12194;SDS011;27023;42.680;23.132;2022-12-07T04:30:11;28.57;;;27.23;;
12194;SDS011;27023;42.680;23.132;2022-12-07T04:32:38;30.97;;;29.57;;
12194;SDS011;27023;42.680;23.132;2022-12-07T04:35:06;32.13;;;30.67;;
12194;SDS011;27023;42.680;23.132;2022-12-07T04:37:34;33.40;;;31.87;;
12194;SDS011;27023;42.680;23.132;2022-12-07T04:40:04;32.07;;;30.50;;
12194;SDS011;27023;42.680;23.132;2022-12-07T04:42:33;32.70;;;30.87;;
12194;SDS011;27023;42.680;23.132;2022-12-07T04:45:00;29.03;;;27.40;;
12194;SDS011;27023;42.680;23.132;2022-12-07T04:47:27;26.17;;;24.97;;
12194;SDS011;27023;42.680;23.132;2022-12-07T04:49:53;28.20;;;26.87;;
12194;SDS011;27023;42.680;23.132;2022-12-07T04:52:21;25.80;;;24.63;;
12194;SDS011;27023;42.680;23.132;2022-12-07T04:54:48;24.47;;;23.37;;
12194;SDS011;27023;42.680;23.132;2022-12-07T04:57:15;22.73;;;21.77;;
12194;SDS011;27023;42.680;23.132;2022-12-07T04:59:42;24.07;;;23.07;;
12194;SDS011;27023;42.680;23.132;2022-12-07T05:02:08;24.80;;;23.70;;
12194;SDS011;27023;42.680;23.132;2022-12-07T05:04:35;23.37;;;22.30;;
12194;SDS011;27023;42.680;23.132;2022-12-07T05:07:01;25.30;;;24.10;;
12194;SDS011;27023;42.680;23.132;2022-12-07T05:09:29;24.97;;;23.87;;
12194;SDS011;27023;42.680;23.132;2022-12-07T05:11:56;27.13;;;25.83;;
12194;SDS011;27023;42.680;23.132;2022-12-07T05:14:23;28.30;;;26.97;;
12194;SDS011;27023;42.680;23.132;2022-12-07T05:16:50;32.10;;;30.53;;
12194;SDS011;27023;42.680;23.132;2022-12-07T05:19:18;31.37;;;29.83;;
12194;SDS011;27023;42.680;23.132;2022-12-07T05:21:45;27.80;;;26.47;;
12194;SDS011;27023;42.680;23.132;2022-12-07T05:24:13;23.33;;;22.23;;
12194;SDS011;27023;42.680;23.132;2022-12-07T05:26:43;28.77;;;27.37;;
12194;SDS011;27023;42.680;23.132;2022-12-07T05:29:10;24.63;;;23.53;;
12194;SDS011;27023;42.680;23.132;2022-12-07T05:31:38;24.60;;;23.50;;
12194;SDS011;27023;42.680;23.132;2022-12-07T05:34:05;29.97;;;28.53;;
12194;SDS011;27023;42.680;23.132;2022-12-07T05:36:31;29.57;;;28.17;;
12194;SDS011;27023;42.680;23.132;2022-12-07T05:38:58;32.80;;;31.20;;
12194;SDS011;27023;42.680;23.132;2022-12-07T05:41:25;33.80;;;32.20;;
12194;SDS011;27023;42.680;23.132;2022-12-07T05:44:11;27.90;;;26.60;;
12194;SDS011;27023;42.680;23.132;2022-12-07T05:46:37;29.37;;;28.00;;
12194;SDS011;27023;42.680;23.132;2022-12-07T05:49:04;30.87;;;29.43;;
12194;SDS011;27023;42.680;23.132;2022-12-07T05:51:31;39.50;;;37.57;;
12194;SDS011;27023;42.680;23.132;2022-12-07T05:53:57;28.40;;;27.03;;
12194;SDS011;27023;42.680;23.132;2022-12-07T05:56:24;31.07;;;29.60;;
12194;SDS011;27023;42.680;23.132;2022-12-07T05:58:51;32.03;;;30.43;;
12194;SDS011;27023;42.680;23.132;2022-12-07T06:01:37;38.33;;;36.57;;
12194;SDS011;27023;42.680;23.132;2022-12-07T06:04:03;34.40;;;32.80;;
12194;SDS011;27023;42.680;23.132;2022-12-07T06:06:30;45.03;;;42.87;;
12194;SDS011;27023;42.680;23.132;2022-12-07T06:08:57;39.77;;;37.90;;
12194;SDS011;27023;42.680;23.132;2022-12-07T06:11:23;37.33;;;35.53;;
12194;SDS011;27023;42.680;23.132;2022-12-07T06:14:07;38.13;;;36.23;;
12194;SDS011;27023;42.680;23.132;2022-12-07T06:16:34;28.93;;;27.53;;
12194;SDS011;27023;42.680;23.132;2022-12-07T06:19:02;28.27;;;26.90;;
12194;SDS011;27023;42.680;23.132;2022-12-07T06:21:29;28.33;;;26.97;;
12194;SDS011;27023;42.680;23.132;2022-12-07T06:23:55;32.80;;;31.20;;
12194;SDS011;27023;42.680;23.132;2022-12-07T06:26:22;30.53;;;29.07;;
12194;SDS011;27023;42.680;23.132;2022-12-07T06:28:49;28.20;;;26.83;;
12194;SDS011;27023;42.680;23.132;2022-12-07T06:31:15;26.73;;;25.50;;
12194;SDS011;27023;42.680;23.132;2022-12-07T06:33:42;47.17;;;44.80;;
12194;SDS011;27023;42.680;23.132;2022-12-07T06:36:10;40.73;;;38.67;;
12194;SDS011;27023;42.680;23.132;2022-12-07T06:38:37;31.33;;;29.73;;
12194;SDS011;27023;42.680;23.132;2022-12-07T06:41:04;26.67;;;25.33;;
12194;SDS011;27023;42.680;23.132;2022-12-07T06:43:31;28.07;;;26.67;;
12194;SDS011;27023;42.680;23.132;2022-12-07T06:45:58;29.17;;;27.67;;
12194;SDS011;27023;42.680;23.132;2022-12-07T06:48:25;26.90;;;25.63;;
12194;SDS011;27023;42.680;23.132;2022-12-07T06:50:51;47.87;;;45.37;;
12194;SDS011;27023;42.680;23.132;2022-12-07T06:53:20;48.80;;;46.20;;
12194;SDS011;27023;42.680;23.132;2022-12-07T06:55:46;39.97;;;37.87;;
12194;SDS011;27023;42.680;23.132;2022-12-07T06:58:13;26.23;;;25.03;;
12194;SDS011;27023;42.680;23.132;2022-12-07T07:00:40;26.83;;;25.47;;
12194;SDS011;27023;42.680;23.132;2022-12-07T07:03:06;25.00;;;23.90;;
12194;SDS011;27023;42.680;23.132;2022-12-07T07:05:33;27.13;;;25.83;;
12194;SDS011;27023;42.680;23.132;2022-12-07T07:08:00;33.47;;;31.80;;
12194;SDS011;27023;42.680;23.132;2022-12-07T07:10:29;34.07;;;32.30;;
12194;SDS011;27023;42.680;23.132;2022-12-07T07:12:55;49.23;;;46.73;;
12194;SDS011;27023;42.680;23.132;2022-12-07T07:15:22;35.63;;;33.83;;
12194;SDS011;27023;42.680;23.132;2022-12-07T07:17:49;30.27;;;28.80;;
12194;SDS011;27023;42.680;23.132;2022-12-07T07:20:16;29.10;;;27.60;;
12194;SDS011;27023;42.680;23.132;2022-12-07T07:22:42;37.03;;;35.13;;
12194;SDS011;27023;42.680;23.132;2022-12-07T07:25:09;39.57;;;37.57;;
12194;SDS011;27023;42.680;23.132;2022-12-07T07:27:37;41.67;;;39.53;;
12194;SDS011;27023;42.680;23.132;2022-12-07T07:30:04;42.17;;;40.00;;
12194;SDS011;27023;42.680;23.132;2022-12-07T07:32:32;26.53;;;25.27;;
12194;SDS011;27023;42.680;23.132;2022-12-07T07:34:59;22.67;;;21.57;;
12194;SDS011;27023;42.680;23.132;2022-12-07T07:37:26;20.17;;;19.10;;
12194;SDS011;27023;42.680;23.132;2022-12-07T07:39:52;38.33;;;36.43;;
12194;SDS011;27023;42.680;23.132;2022-12-07T07:42:19;32.23;;;30.60;;
12194;SDS011;27023;42.680;23.132;2022-12-07T07:44:47;43.20;;;40.93;;
12194;SDS011;27023;42.680;23.132;2022-12-07T07:47:14;20.83;;;19.93;;
12194;SDS011;27023;42.680;23.132;2022-12-07T07:49:40;22.13;;;21.13;;
12194;SDS011;27023;42.680;23.132;2022-12-07T07:52:07;25.73;;;24.50;;
12194;SDS011;27023;42.680;23.132;2022-12-07T07:54:34;51.20;;;48.50;;
12194;SDS011;27023;42.680;23.132;2022-12-07T07:57:00;43.80;;;41.53;;
12194;SDS011;27023;42.680;23.132;2022-12-07T07:59:27;33.03;;;31.40;;
12194;SDS011;27023;42.680;23.132;2022-12-07T08:01:55;20.53;;;19.60;;
12194;SDS011;27023;42.680;23.132;2022-12-07T08:04:22;21.47;;;20.47;;
12194;SDS011;27023;42.680;23.132;2022-12-07T08:06:49;21.70;;;20.70;;
12194;SDS011;27023;42.680;23.132;2022-12-07T08:09:15;34.73;;;33.00;;
12194;SDS011;27023;42.680;23.132;2022-12-07T08:11:42;27.27;;;25.97;;
12194;SDS011;27023;42.680;23.132;2022-12-07T08:14:10;45.30;;;43.07;;
12194;SDS011;27023;42.680;23.132;2022-12-07T08:16:37;34.23;;;32.57;;
12194;SDS011;27023;42.680;23.132;2022-12-07T08:19:05;25.10;;;23.90;;
12194;SDS011;27023;42.680;23.132;2022-12-07T08:21:32;20.83;;;19.77;;
12194;SDS011;27023;42.680;23.132;2022-12-07T08:23:58;21.27;;;20.27;;
12194;SDS011;27023;42.680;23.132;2022-12-07T08:26:25;31.10;;;29.53;;
12194;SDS011;27023;42.680;23.132;2022-12-07T08:28:52;30.00;;;28.47;;
12194;SDS011;27023;42.680;23.132;2022-12-07T08:31:19;21.43;;;20.33;;
12194;SDS011;27023;42.680;23.132;2022-12-07T08:33:46;25.63;;;24.33;;
12194;SDS011;27023;42.680;23.132;2022-12-07T08:36:15;42.30;;;40.17;;
12194;SDS011;27023;42.680;23.132;2022-12-07T08:38:42;29.53;;;28.17;;
12194;SDS011;27023;42.680;23.132;2022-12-07T08:41:09;25.30;;;24.03;;
12194;SDS011;27023;42.680;23.132;2022-12-07T08:43:36;31.47;;;29.90;;
12194;SDS011;27023;42.680;23.132;2022-12-07T08:46:07;24.57;;;23.47;;
12194;SDS011;27023;42.680;23.132;2022-12-07T08:48:39;24.60;;;23.37;;
12194;SDS011;27023;42.680;23.132;2022-12-07T08:51:09;29.17;;;27.80;;
12194;SDS011;27023;42.680;23.132;2022-12-07T08:53:38;26.90;;;25.60;;
12194;SDS011;27023;42.680;23.132;2022-12-07T08:56:06;24.93;;;23.73;;
12194;SDS011;27023;42.680;23.132;2022-12-07T08:58:33;24.10;;;22.97;;
12194;SDS011;27023;42.680;23.132;2022-12-07T09:01:02;22.30;;;21.30;;
12194;SDS011;27023;42.680;23.132;2022-12-07T09:03:29;21.27;;;20.27;;
12194;SDS011;27023;42.680;23.132;2022-12-07T09:05:56;21.17;;;20.17;;
12194;SDS011;27023;42.680;23.132;2022-12-07T09:08:25;20.20;;;19.27;;
12194;SDS011;27023;42.680;23.132;2022-12-07T09:11:00;20.33;;;19.43;;
12194;SDS011;27023;42.680;23.132;2022-12-07T09:13:27;26.77;;;25.53;;
12194;SDS011;27023;42.680;23.132;2022-12-07T09:15:53;28.87;;;27.47;;
12194;SDS011;27023;42.680;23.132;2022-12-07T09:18:20;22.63;;;21.57;;
12194;SDS011;27023;42.680;23.132;2022-12-07T09:20:47;19.63;;;18.70;;
12194;SDS011;27023;42.680;23.132;2022-12-07T09:23:13;26.57;;;25.30;;
12194;SDS011;27023;42.680;23.132;2022-12-07T09:25:40;14.83;;;14.23;;
12194;SDS011;27023;42.680;23.132;2022-12-07T09:28:08;18.30;;;17.50;;
12194;SDS011;27023;42.680;23.132;2022-12-07T09:30:35;14.47;;;13.87;;
12194;SDS011;27023;42.680;23.132;2022-12-07T09:33:01;13.27;;;12.77;;
12194;SDS011;27023;42.680;23.132;2022-12-07T09:35:28;20.33;;;19.43;;
12194;SDS011;27023;42.680;23.132;2022-12-07T09:37:55;14.30;;;13.70;;
12194;SDS011;27023;42.680;23.132;2022-12-07T09:40:22;10.53;;;10.13;;
12194;SDS011;27023;42.680;23.132;2022-12-07T09:42:50;14.33;;;13.83;;
12194;SDS011;27023;42.680;23.132;2022-12-07T09:45:21;9.87;;;9.57;;
12194;SDS011;27023;42.680;23.132;2022-12-07T09:47:50;9.67;;;9.37;;
12194;SDS011;27023;42.680;23.132;2022-12-07T09:50:19;10.20;;;9.90;;
12194;SDS011;27023;42.680;23.132;2022-12-07T09:52:47;9.63;;;9.30;;
12194;SDS011;27023;42.680;23.132;2022-12-07T09:55:16;9.90;;;9.60;;
12194;SDS011;27023;42.680;23.132;2022-12-07T09:57:49;7.30;;;7.10;;
12194;SDS011;27023;42.680;23.132;2022-12-07T10:00:17;6.47;;;6.37;;
12194;SDS011;27023;42.680;23.132;2022-12-07T10:02:49;6.57;;;6.37;;
12194;SDS011;27023;42.680;23.132;2022-12-07T10:05:19;7.87;;;7.20;;
12194;SDS011;27023;42.680;23.132;2022-12-07T10:07:50;8.80;;;8.43;;
12194;SDS011;27023;42.680;23.132;2022-12-07T10:10:17;6.77;;;6.57;;
12194;SDS011;27023;42.680;23.132;2022-12-07T10:12:53;9.30;;;8.80;;
12194;SDS011;27023;42.680;23.132;2022-12-07T10:15:22;8.47;;;7.83;;
12194;SDS011;27023;42.680;23.132;2022-12-07T10:17:50;5.07;;;4.80;;
12194;SDS011;27023;42.680;23.132;2022-12-07T10:20:19;14.70;;;5.83;;
12194;SDS011;27023;42.680;23.132;2022-12-07T10:22:55;6.57;;;6.27;;
12194;SDS011;27023;42.680;23.132;2022-12-07T10:25:25;5.63;;;5.37;;
12194;SDS011;27023;42.680;23.132;2022-12-07T10:27:57;5.70;;;5.60;;
12194;SDS011;27023;42.680;23.132;2022-12-07T10:30:45;6.60;;;6.50;;
12194;SDS011;27023;42.680;23.132;2022-12-07T10:33:22;8.83;;;8.60;;
12194;SDS011;27023;42.680;23.132;2022-12-07T10:35:54;8.77;;;8.57;;
12194;SDS011;27023;42.680;23.132;2022-12-07T10:38:21;13.23;;;12.63;;
12194;SDS011;27023;42.680;23.132;2022-12-07T10:40:48;8.10;;;7.90;;
12194;SDS011;27023;42.680;23.132;2022-12-07T10:43:29;6.50;;;6.37;;
12194;SDS011;27023;42.680;23.132;2022-12-07T10:46:07;10.30;;;10.00;;
12194;SDS011;27023;42.680;23.132;2022-12-07T10:48:52;9.17;;;8.87;;
12194;SDS011;27023;42.680;23.132;2022-12-07T10:51:26;7.90;;;7.60;;
12194;SDS011;27023;42.680;23.132;2022-12-07T10:53:59;8.30;;;7.83;;
12194;SDS011;27023;42.680;23.132;2022-12-07T10:56:40;6.50;;;6.40;;
12194;SDS011;27023;42.680;23.132;2022-12-07T10:59:22;7.63;;;7.43;;
12194;SDS011;27023;42.680;23.132;2022-12-07T11:02:09;8.43;;;8.13;;
12194;SDS011;27023;42.680;23.132;2022-12-07T11:04:54;8.10;;;7.80;;
12194;SDS011;27023;42.680;23.132;2022-12-07T11:07:38;8.00;;;7.80;;
12194;SDS011;27023;42.680;23.132;2022-12-07T11:10:13;8.50;;;8.20;;
12194;SDS011;27023;42.680;23.132;2022-12-07T11:12:47;11.40;;;10.87;;
12194;SDS011;27023;42.680;23.132;2022-12-07T11:15:32;8.13;;;7.93;;
12194;SDS011;27023;42.680;23.132;2022-12-07T11:18:21;11.27;;;10.57;;
12194;SDS011;27023;42.680;23.132;2022-12-07T11:20:56;8.27;;;8.10;;
12194;SDS011;27023;42.680;23.132;2022-12-07T11:23:33;9.23;;;8.83;;
12194;SDS011;27023;42.680;23.132;2022-12-07T11:26:13;10.10;;;9.83;;
12194;SDS011;27023;42.680;23.132;2022-12-07T11:28:52;12.40;;;11.90;;
12194;SDS011;27023;42.680;23.132;2022-12-07T11:31:33;8.63;;;8.40;;
12194;SDS011;27023;42.680;23.132;2022-12-07T11:34:06;10.30;;;9.93;;
12194;SDS011;27023;42.680;23.132;2022-12-07T11:36:43;8.07;;;7.87;;
12194;SDS011;27023;42.680;23.132;2022-12-07T11:39:16;8.50;;;8.23;;
12194;SDS011;27023;42.680;23.132;2022-12-07T11:41:52;9.90;;;9.50;;
12194;SDS011;27023;42.680;23.132;2022-12-07T11:44:29;7.73;;;7.43;;
12194;SDS011;27023;42.680;23.132;2022-12-07T11:47:01;8.47;;;8.27;;
12194;SDS011;27023;42.680;23.132;2022-12-07T11:49:37;9.23;;;8.83;;
12194;SDS011;27023;42.680;23.132;2022-12-07T11:52:16;8.23;;;7.93;;
12194;SDS011;27023;42.680;23.132;2022-12-07T11:54:48;11.67;;;11.27;;
12194;SDS011;27023;42.680;23.132;2022-12-07T11:57:19;6.67;;;6.40;;
12194;SDS011;27023;42.680;23.132;2022-12-07T11:59:51;9.50;;;9.20;;
12194;SDS011;27023;42.680;23.132;2022-12-07T12:02:23;9.83;;;9.57;;
12194;SDS011;27023;42.680;23.132;2022-12-07T12:04:55;10.67;;;10.27;;
12194;SDS011;27023;42.680;23.132;2022-12-07T12:07:29;10.63;;;10.00;;
12194;SDS011;27023;42.680;23.132;2022-12-07T12:09:58;11.67;;;11.27;;
12194;SDS011;27023;42.680;23.132;2022-12-07T12:12:41;9.90;;;9.50;;
12194;SDS011;27023;42.680;23.132;2022-12-07T12:15:45;13.07;;;12.50;;
12194;SDS011;27023;42.680;23.132;2022-12-07T12:18:27;11.33;;;10.97;;
12194;SDS011;27023;42.680;23.132;2022-12-07T12:21:02;10.73;;;10.43;;
12194;SDS011;27023;42.680;23.132;2022-12-07T12:23:37;17.43;;;16.73;;
12194;SDS011;27023;42.680;23.132;2022-12-07T12:26:07;16.97;;;16.27;;
12194;SDS011;27023;42.680;23.132;2022-12-07T12:28:48;13.40;;;12.97;;
12194;SDS011;27023;42.680;23.132;2022-12-07T12:31:28;15.37;;;14.77;;
12194;SDS011;27023;42.680;23.132;2022-12-07T12:34:00;20.80;;;19.63;;
12194;SDS011;27023;42.680;23.132;2022-12-07T12:36:43;17.57;;;16.87;;
12194;SDS011;27023;42.680;23.132;2022-12-07T12:39:13;19.47;;;18.57;;
12194;SDS011;27023;42.680;23.132;2022-12-07T12:41:51;18.77;;;18.03;;
12194;SDS011;27023;42.680;23.132;2022-12-07T12:47:52;20.70;;;19.80;;
12194;SDS011;27023;42.680;23.132;2022-12-07T12:50:23;16.67;;;15.97;;
12194;SDS011;27023;42.680;23.132;2022-12-07T12:58:46;13.27;;;12.77;;
12194;SDS011;27023;42.680;23.132;2022-12-07T13:04:23;13.00;;;12.47;;
12194;SDS011;27023;42.680;23.132;2022-12-07T13:07:12;11.77;;;11.30;;
12194;SDS011;27023;42.680;23.132;2022-12-07T13:09:59;11.90;;;11.50;;
12194;SDS011;27023;42.680;23.132;2022-12-07T13:12:28;13.63;;;13.13;;
12194;SDS011;27023;42.680;23.132;2022-12-07T13:14:56;11.80;;;11.40;;
12194;SDS011;27023;42.680;23.132;2022-12-07T13:20:43;11.60;;;11.23;;
12194;SDS011;27023;42.680;23.132;2022-12-07T13:23:19;10.37;;;10.03;;
12194;SDS011;27023;42.680;23.132;2022-12-07T13:25:51;9.97;;;9.67;;
12194;SDS011;27023;42.680;23.132;2022-12-07T13:28:23;10.47;;;10.13;;
12194;SDS011;27023;42.680;23.132;2022-12-07T13:30:57;9.33;;;9.10;;
12194;SDS011;27023;42.680;23.132;2022-12-07T13:33:30;9.17;;;8.97;;
12194;SDS011;27023;42.680;23.132;2022-12-07T13:35:57;11.93;;;11.53;;
12194;SDS011;27023;42.680;23.132;2022-12-07T13:38:26;11.13;;;10.80;;
12194;SDS011;27023;42.680;23.132;2022-12-07T13:41:02;12.13;;;11.73;;
12194;SDS011;27023;42.680;23.132;2022-12-07T13:43:48;11.73;;;11.33;;
12194;SDS011;27023;42.680;23.132;2022-12-07T13:46:17;12.47;;;12.07;;
12194;SDS011;27023;42.680;23.132;2022-12-07T13:48:49;12.77;;;12.37;;
12194;SDS011;27023;42.680;23.132;2022-12-07T13:51:18;12.40;;;12.00;;
12194;SDS011;27023;42.680;23.132;2022-12-07T13:53:47;13.97;;;13.47;;
12194;SDS011;27023;42.680;23.132;2022-12-07T13:56:16;8.33;;;8.13;;
12194;SDS011;27023;42.680;23.132;2022-12-07T13:58:42;6.80;;;6.70;;
12194;SDS011;27023;42.680;23.132;2022-12-07T14:01:11;6.27;;;6.17;;
12194;SDS011;27023;42.680;23.132;2022-12-07T14:03:39;9.33;;;9.10;;
12194;SDS011;27023;42.680;23.132;2022-12-07T14:06:17;9.47;;;9.20;;
12194;SDS011;27023;42.680;23.132;2022-12-07T14:08:46;3.50;;;3.40;;
12194;SDS011;27023;42.680;23.132;2022-12-07T14:11:14;2.63;;;2.63;;
12194;SDS011;27023;42.680;23.132;2022-12-07T14:13:44;2.97;;;2.97;;
12194;SDS011;27023;42.680;23.132;2022-12-07T14:16:27;3.20;;;3.20;;
12194;SDS011;27023;42.680;23.132;2022-12-07T14:18:56;6.43;;;6.23;;
12194;SDS011;27023;42.680;23.132;2022-12-07T14:21:25;2.33;;;2.33;;
12194;SDS011;27023;42.680;23.132;2022-12-07T14:24:09;8.80;;;8.50;;
12194;SDS011;27023;42.680;23.132;2022-12-07T14:26:43;7.53;;;7.33;;
12194;SDS011;27023;42.680;23.132;2022-12-07T14:32:16;13.53;;;12.93;;
12194;SDS011;27023;42.680;23.132;2022-12-07T14:34:55;13.10;;;12.60;;
12194;SDS011;27023;42.680;23.132;2022-12-07T14:37:23;11.40;;;11.10;;
12194;SDS011;27023;42.680;23.132;2022-12-07T14:39:50;12.43;;;12.03;;
12194;SDS011;27023;42.680;23.132;2022-12-07T14:42:17;11.50;;;11.10;;
12194;SDS011;27023;42.680;23.132;2022-12-07T14:44:44;11.07;;;10.50;;
12194;SDS011;27023;42.680;23.132;2022-12-07T14:47:11;9.73;;;9.43;;
12194;SDS011;27023;42.680;23.132;2022-12-07T14:49:39;11.57;;;11.17;;
12194;SDS011;27023;42.680;23.132;2022-12-07T14:52:08;11.80;;;11.40;;
12194;SDS011;27023;42.680;23.132;2022-12-07T14:54:40;12.30;;;11.90;;
12194;SDS011;27023;42.680;23.132;2022-12-07T14:57:08;11.00;;;10.67;;